createdAt,value
2023-01-19T00:00:29.962Z,766.00
2023-01-19T00:01:00.013Z,767.00
2023-01-19T00:01:30.123Z,765.00
2023-01-19T00:02:00.126Z,766.00
2023-01-19T00:02:30.238Z,764.00
2023-01-19T00:03:00.267Z,763.00
2023-01-19T00:03:30.237Z,763.00
2023-01-19T00:04:00.353Z,762.00
2023-01-19T00:04:30.347Z,762.00
2023-01-19T00:05:00.462Z,762.00
2023-01-19T00:05:30.463Z,762.00
2023-01-19T00:06:00.504Z,761.00
2023-01-19T00:06:30.567Z,760.00
2023-01-19T00:07:00.602Z,758.00
2023-01-19T00:07:30.602Z,755.00
2023-01-19T00:08:00.995Z,755.00
2023-01-19T00:08:30.724Z,758.00
2023-01-19T00:09:00.730Z,759.00
2023-01-19T00:09:30.868Z,760.00
2023-01-19T00:10:00.835Z,761.00
2023-01-19T00:10:30.953Z,761.00
2023-01-19T00:11:01.072Z,759.00
2023-01-19T00:11:31.189Z,757.00
2023-01-19T00:12:01.288Z,756.00
2023-01-19T00:12:31.383Z,756.00
2023-01-19T00:13:01.999Z,757.00
2023-01-19T00:13:31.503Z,755.00
2023-01-19T00:14:01.621Z,756.00
2023-01-19T00:14:31.676Z,756.00
2023-01-19T00:15:01.751Z,757.00
2023-01-19T00:15:31.833Z,758.00
2023-01-19T00:16:01.967Z,758.00
2023-01-19T00:16:32.046Z,756.00
2023-01-19T00:17:02.021Z,756.00
2023-01-19T00:17:32.119Z,753.00
2023-01-19T00:18:02.185Z,754.00
2023-01-19T00:18:32.271Z,754.00
2023-01-19T00:19:02.354Z,753.00
2023-01-19T00:19:32.433Z,752.00
2023-01-19T00:20:02.512Z,752.00
2023-01-19T00:20:32.605Z,752.00
2023-01-19T00:21:02.665Z,752.00
2023-01-19T00:21:32.767Z,753.00
2023-01-19T00:22:02.843Z,752.00
2023-01-19T00:22:32.964Z,751.00
2023-01-19T00:23:03.367Z,753.00
2023-01-19T00:23:33.132Z,753.00
2023-01-19T00:24:03.261Z,753.00
2023-01-19T00:24:33.389Z,753.00
2023-01-19T00:25:03.485Z,752.00
2023-01-19T00:25:33.485Z,752.00
2023-01-19T00:26:03.481Z,752.00
2023-01-19T00:26:33.601Z,752.00
2023-01-19T00:27:03.714Z,753.00
2023-01-19T00:27:33.728Z,753.00
2023-01-19T00:28:03.732Z,752.00
2023-01-19T00:28:33.729Z,750.00
2023-01-19T00:29:03.729Z,749.00
2023-01-19T00:29:33.754Z,750.00
2023-01-19T00:30:03.856Z,750.00
2023-01-19T00:30:33.849Z,749.00
2023-01-19T00:31:03.947Z,748.00
2023-01-19T00:31:33.960Z,747.00
2023-01-19T00:32:03.881Z,748.00
2023-01-19T00:32:34.005Z,747.00
2023-01-19T00:33:04.281Z,744.00
2023-01-19T00:33:34.036Z,745.00
2023-01-19T00:34:04.151Z,745.00
2023-01-19T00:34:34.266Z,744.00
2023-01-19T00:35:04.268Z,746.00
2023-01-19T00:35:34.297Z,746.00
2023-01-19T00:36:04.266Z,745.00
2023-01-19T00:36:34.266Z,743.00
2023-01-19T00:37:04.275Z,743.00
2023-01-19T00:37:34.273Z,743.00
2023-01-19T00:38:04.296Z,744.00
2023-01-19T00:38:34.282Z,743.00
2023-01-19T00:39:04.330Z,743.00
2023-01-19T00:39:34.340Z,741.00
2023-01-19T00:40:04.541Z,743.00
2023-01-19T00:40:34.528Z,743.00
2023-01-19T00:41:04.517Z,743.00
2023-01-19T00:41:34.696Z,744.00
2023-01-19T00:42:04.671Z,744.00
2023-01-19T00:42:34.807Z,742.00
2023-01-19T00:43:04.801Z,743.00
2023-01-19T00:43:34.777Z,743.00
2023-01-19T00:44:04.770Z,743.00
2023-01-19T00:44:34.889Z,742.00
2023-01-19T00:45:04.883Z,740.00
2023-01-19T00:45:35.063Z,742.00
2023-01-19T00:46:05.125Z,743.00
2023-01-19T00:46:35.128Z,745.00
2023-01-19T00:47:05.238Z,744.00
2023-01-19T00:47:35.361Z,742.00
2023-01-19T00:48:05.356Z,741.00
2023-01-19T00:48:35.351Z,741.00
2023-01-19T00:49:05.344Z,740.00
2023-01-19T00:49:35.358Z,738.00
2023-01-19T00:50:05.461Z,737.00
2023-01-19T00:50:35.583Z,736.00
2023-01-19T00:51:05.589Z,733.00
2023-01-19T00:51:35.706Z,733.00
2023-01-19T00:52:05.696Z,734.00
2023-01-19T00:52:35.692Z,735.00
2023-01-19T00:53:05.818Z,735.00
2023-01-19T00:53:35.822Z,735.00
2023-01-19T00:54:05.823Z,734.00
2023-01-19T00:54:35.944Z,733.00
2023-01-19T00:55:05.937Z,733.00
2023-01-19T00:55:36.082Z,731.00
2023-01-19T00:56:06.176Z,730.00
2023-01-19T00:56:36.168Z,730.00
2023-01-19T00:57:06.283Z,733.00
2023-01-19T00:57:36.400Z,735.00
2023-01-19T00:58:06.406Z,736.00
2023-01-19T00:58:36.415Z,735.00
2023-01-19T00:59:06.518Z,733.00
2023-01-19T00:59:36.512Z,734.00
2023-01-19T01:00:06.631Z,733.00
2023-01-19T01:00:36.748Z,734.00
2023-01-19T01:01:06.866Z,735.00
2023-01-19T01:01:45.351Z,733.00
2023-01-19T01:02:07.126Z,732.00
2023-01-19T01:02:37.167Z,731.00
2023-01-19T01:03:07.071Z,730.00
2023-01-19T01:03:37.027Z,731.00
2023-01-19T01:04:07.136Z,733.00
2023-01-19T01:04:37.253Z,734.00
2023-01-19T01:05:07.385Z,733.00
2023-01-19T01:05:37.371Z,733.00
2023-01-19T01:06:07.500Z,731.00
2023-01-19T01:06:37.489Z,730.00
2023-01-19T01:07:07.606Z,730.00
2023-01-19T01:07:37.734Z,729.00
2023-01-19T01:08:07.753Z,730.00
2023-01-19T01:08:37.741Z,728.00
2023-01-19T01:09:07.871Z,727.00
2023-01-19T01:09:37.864Z,727.00
2023-01-19T01:10:07.869Z,727.00
2023-01-19T01:10:38.003Z,728.00
2023-01-19T01:11:08.099Z,729.00
2023-01-19T01:11:38.091Z,728.00
2023-01-19T01:12:08.193Z,727.00
2023-01-19T01:12:38.230Z,727.00
2023-01-19T01:13:21.236Z,727.00
2023-01-19T01:13:38.323Z,728.00
2023-01-19T01:14:08.421Z,726.00
2023-01-19T01:14:38.423Z,727.00
2023-01-19T01:15:08.497Z,724.00
2023-01-19T01:15:38.556Z,723.00
2023-01-19T01:16:08.664Z,724.00
2023-01-19T01:16:38.864Z,725.00
2023-01-19T01:17:08.841Z,724.00
2023-01-19T01:17:38.925Z,724.00
2023-01-19T01:18:09.061Z,725.00
2023-01-19T01:18:39.015Z,724.00
2023-01-19T01:19:09.112Z,725.00
2023-01-19T01:19:39.172Z,724.00
2023-01-19T01:20:09.260Z,724.00
2023-01-19T01:20:39.336Z,723.00
2023-01-19T01:21:09.445Z,723.00
2023-01-19T01:21:39.497Z,722.00
2023-01-19T01:22:09.611Z,721.00
2023-01-19T01:22:39.605Z,720.00
2023-01-19T01:23:09.628Z,720.00
2023-01-19T01:23:39.617Z,721.00
2023-01-19T01:24:09.737Z,721.00
2023-01-19T01:24:39.731Z,721.00
2023-01-19T01:25:09.849Z,720.00
2023-01-19T01:25:39.847Z,717.00
2023-01-19T01:26:09.882Z,716.00
2023-01-19T01:26:39.853Z,718.00
2023-01-19T01:27:09.970Z,718.00
2023-01-19T01:27:39.956Z,718.00
2023-01-19T01:28:10.116Z,719.00
2023-01-19T01:28:40.115Z,720.00
2023-01-19T01:29:10.120Z,719.00
2023-01-19T01:29:40.222Z,720.00
2023-01-19T01:30:10.219Z,720.00
2023-01-19T01:30:40.334Z,719.00
2023-01-19T01:31:10.308Z,721.00
2023-01-19T01:31:40.360Z,722.00
2023-01-19T01:32:10.343Z,722.00
2023-01-19T01:32:40.465Z,722.00
2023-01-19T01:33:10.595Z,722.00
2023-01-19T01:33:41.902Z,720.00
2023-01-19T01:34:10.662Z,718.00
2023-01-19T01:34:40.653Z,718.00
2023-01-19T01:35:10.771Z,716.00
2023-01-19T01:35:40.767Z,717.00
2023-01-19T01:36:10.761Z,718.00
2023-01-19T01:36:40.877Z,719.00
2023-01-19T01:37:10.873Z,719.00
2023-01-19T01:37:40.895Z,718.00
2023-01-19T01:38:11.018Z,718.00
2023-01-19T01:38:41.054Z,718.00
2023-01-19T01:39:11.033Z,717.00
2023-01-19T01:39:41.028Z,718.00
2023-01-19T01:40:11.147Z,718.00
2023-01-19T01:40:41.264Z,717.00
2023-01-19T01:41:11.362Z,718.00
2023-01-19T01:41:41.335Z,719.00
2023-01-19T01:42:11.411Z,720.00
2023-01-19T01:42:41.528Z,719.00
2023-01-19T01:43:11.674Z,719.00
2023-01-19T01:43:41.672Z,720.00
2023-01-19T01:44:11.785Z,720.00
2023-01-19T01:44:41.782Z,721.00
2023-01-19T01:45:11.905Z,721.00
2023-01-19T01:45:42.045Z,719.00
2023-01-19T01:46:12.278Z,719.00
2023-01-19T01:46:42.139Z,720.00
2023-01-19T01:47:12.256Z,718.00
2023-01-19T01:47:42.259Z,718.00
2023-01-19T01:48:12.425Z,718.00
2023-01-19T01:48:42.420Z,717.00
2023-01-19T01:49:12.416Z,717.00
2023-01-19T01:49:42.425Z,718.00
2023-01-19T01:50:12.576Z,720.00
2023-01-19T01:50:42.560Z,720.00
2023-01-19T01:51:12.685Z,720.00
2023-01-19T01:51:42.678Z,721.00
2023-01-19T01:52:12.796Z,718.00
2023-01-19T01:52:42.795Z,718.00
2023-01-19T01:53:12.988Z,717.00
2023-01-19T01:53:42.836Z,717.00
2023-01-19T01:54:12.960Z,717.00
2023-01-19T01:54:43.082Z,717.00
2023-01-19T01:55:13.191Z,717.00
2023-01-19T01:55:43.192Z,715.00
2023-01-19T01:56:13.181Z,714.00
2023-01-19T01:56:43.323Z,714.00
2023-01-19T01:57:13.299Z,713.00
2023-01-19T01:57:43.301Z,715.00
2023-01-19T01:58:13.439Z,715.00
2023-01-19T01:58:43.431Z,714.00
2023-01-19T01:59:13.428Z,712.00
2023-01-19T01:59:43.558Z,710.00
2023-01-19T02:00:13.665Z,710.00
2023-01-19T02:00:43.684Z,712.00
2023-01-19T02:01:13.847Z,712.00
2023-01-19T02:01:44.032Z,711.00
2023-01-19T02:02:13.930Z,709.00
2023-01-19T02:02:43.927Z,708.00
2023-01-19T02:03:14.102Z,708.00
2023-01-19T02:03:44.087Z,707.00
2023-01-19T02:04:14.208Z,707.00
2023-01-19T02:04:44.212Z,707.00
2023-01-19T02:05:14.321Z,708.00
2023-01-19T02:05:44.319Z,708.00
2023-01-19T02:06:14.432Z,708.00
2023-01-19T02:06:44.436Z,709.00
2023-01-19T02:07:14.445Z,712.00
2023-01-19T02:07:44.548Z,711.00
2023-01-19T02:08:14.587Z,711.00
2023-01-19T02:08:44.593Z,710.00
2023-01-19T02:09:14.586Z,709.00
2023-01-19T02:09:44.592Z,709.00
2023-01-19T02:10:14.729Z,708.00
2023-01-19T02:10:44.837Z,707.00
2023-01-19T02:11:14.837Z,706.00
2023-01-19T02:11:44.847Z,704.00
2023-01-19T02:12:15.045Z,705.00
2023-01-19T02:12:44.969Z,705.00
2023-01-19T02:13:15.089Z,705.00
2023-01-19T02:13:45.261Z,707.00
2023-01-19T02:14:15.284Z,708.00
2023-01-19T02:14:45.364Z,707.00
2023-01-19T02:15:15.453Z,707.00
2023-01-19T02:15:45.531Z,707.00
2023-01-19T02:16:15.671Z,707.00
2023-01-19T02:16:45.781Z,706.00
2023-01-19T02:17:15.727Z,704.00
2023-01-19T02:17:45.806Z,705.00
2023-01-19T02:18:15.918Z,705.00
2023-01-19T02:18:45.993Z,705.00
2023-01-19T02:19:16.072Z,704.00
2023-01-19T02:19:46.149Z,705.00
2023-01-19T02:20:16.241Z,706.00
2023-01-19T02:20:46.308Z,705.00
2023-01-19T02:21:16.394Z,704.00
2023-01-19T02:21:46.468Z,701.00
2023-01-19T02:22:16.525Z,701.00
2023-01-19T02:22:46.519Z,700.00
2023-01-19T02:23:16.643Z,700.00
2023-01-19T02:23:46.766Z,700.00
2023-01-19T02:24:16.761Z,701.00
2023-01-19T02:24:46.752Z,702.00
2023-01-19T02:25:16.748Z,700.00
2023-01-19T02:25:46.759Z,700.00
2023-01-19T02:26:16.859Z,700.00
2023-01-19T02:26:47.001Z,698.00
2023-01-19T02:27:17.020Z,697.00
2023-01-19T02:27:47.002Z,696.00
2023-01-19T02:28:17.167Z,696.00
2023-01-19T02:28:47.164Z,696.00
2023-01-19T02:29:17.160Z,697.00
2023-01-19T02:29:47.280Z,697.00
2023-01-19T02:30:17.406Z,696.00
2023-01-19T02:30:47.526Z,697.00
2023-01-19T02:31:17.523Z,697.00
2023-01-19T02:31:47.504Z,698.00
2023-01-19T02:32:17.621Z,698.00
2023-01-19T02:32:47.744Z,698.00
2023-01-19T02:33:17.756Z,698.00
2023-01-19T02:33:47.745Z,698.00
2023-01-19T02:34:17.870Z,698.00
2023-01-19T02:34:47.855Z,696.00
2023-01-19T02:35:17.967Z,694.00
2023-01-19T02:35:47.994Z,696.00
2023-01-19T02:36:17.985Z,696.00
2023-01-19T02:36:47.981Z,694.00
2023-01-19T02:37:18.103Z,694.00
2023-01-19T02:37:48.094Z,695.00
2023-01-19T02:38:18.243Z,697.00
2023-01-19T02:38:48.235Z,700.00
2023-01-19T02:39:18.358Z,699.00
2023-01-19T02:39:48.478Z,698.00
2023-01-19T02:40:18.471Z,699.00
2023-01-19T02:40:48.584Z,700.00
2023-01-19T02:41:18.703Z,700.00
2023-01-19T02:41:48.702Z,700.00
2023-01-19T02:42:18.721Z,698.00
2023-01-19T02:42:48.732Z,700.00
2023-01-19T02:43:18.848Z,700.00
2023-01-19T02:43:48.839Z,699.00
2023-01-19T02:44:18.831Z,699.00
2023-01-19T02:44:48.829Z,700.00
2023-01-19T02:45:18.946Z,700.00
2023-01-19T02:45:49.097Z,699.00
2023-01-19T02:46:19.119Z,698.00
2023-01-19T02:46:49.094Z,695.00
2023-01-19T02:47:19.089Z,695.00
2023-01-19T02:47:49.088Z,695.00
2023-01-19T02:48:19.243Z,695.00
2023-01-19T02:48:49.292Z,692.00
2023-01-19T02:49:19.291Z,692.00
2023-01-19T02:49:49.284Z,693.00
2023-01-19T02:50:19.406Z,693.00
2023-01-19T02:50:49.442Z,692.00
2023-01-19T02:51:19.429Z,693.00
2023-01-19T02:51:49.545Z,694.00
2023-01-19T02:52:19.580Z,694.00
2023-01-19T02:52:49.568Z,695.00
2023-01-19T02:53:19.694Z,697.00
2023-01-19T02:53:49.695Z,697.00
2023-01-19T02:54:19.804Z,698.00
2023-01-19T02:54:49.919Z,698.00
2023-01-19T02:55:19.936Z,698.00
2023-01-19T02:55:49.917Z,699.00
2023-01-19T02:56:19.913Z,700.00
2023-01-19T02:56:49.917Z,699.00
2023-01-19T02:57:20.049Z,698.00
2023-01-19T02:57:50.046Z,698.00
2023-01-19T02:58:20.192Z,696.00
2023-01-19T02:58:50.282Z,694.00
2023-01-19T02:59:20.398Z,694.00
2023-01-19T02:59:50.394Z,694.00
2023-01-19T03:00:20.511Z,693.00
2023-01-19T03:00:50.660Z,694.00
2023-01-19T03:01:20.780Z,693.00
2023-01-19T03:01:50.860Z,693.00
2023-01-19T03:02:20.874Z,693.00
2023-01-19T03:02:50.777Z,691.00
2023-01-19T03:03:20.757Z,690.00
2023-01-19T03:03:50.880Z,689.00
2023-01-19T03:04:20.871Z,687.00
2023-01-19T03:04:50.997Z,688.00
2023-01-19T03:05:21.109Z,688.00
2023-01-19T03:05:51.109Z,686.00
2023-01-19T03:06:21.097Z,688.00
2023-01-19T03:06:51.213Z,687.00
2023-01-19T03:07:21.210Z,687.00
2023-01-19T03:07:51.212Z,686.00
2023-01-19T03:08:21.325Z,688.00
2023-01-19T03:08:51.449Z,688.00
2023-01-19T03:09:21.443Z,688.00
2023-01-19T03:09:51.563Z,686.00
2023-01-19T03:10:21.686Z,687.00
2023-01-19T03:10:51.683Z,686.00
2023-01-19T03:11:21.694Z,688.00
2023-01-19T03:11:51.796Z,687.00
2023-01-19T03:12:21.876Z,686.00
2023-01-19T03:12:51.960Z,686.00
2023-01-19T03:13:22.050Z,685.00
2023-01-19T03:13:52.196Z,685.00
2023-01-19T03:14:22.242Z,686.00
2023-01-19T03:14:52.317Z,685.00
2023-01-19T03:15:22.389Z,685.00
2023-01-19T03:15:52.680Z,685.00
2023-01-19T03:16:22.965Z,686.00
2023-01-19T03:16:52.607Z,686.00
2023-01-19T03:17:22.589Z,685.00
2023-01-19T03:17:52.674Z,685.00
2023-01-19T03:18:22.754Z,687.00
2023-01-19T03:18:52.840Z,689.00
2023-01-19T03:19:22.927Z,691.00
2023-01-19T03:19:53.007Z,693.00
2023-01-19T03:20:23.077Z,693.00
2023-01-19T03:20:53.158Z,695.00
2023-01-19T03:21:23.240Z,695.00
2023-01-19T03:21:53.320Z,695.00
2023-01-19T03:22:23.669Z,695.00
2023-01-19T03:22:53.530Z,695.00
2023-01-19T03:23:23.524Z,694.00
2023-01-19T03:23:53.650Z,693.00
2023-01-19T03:24:23.645Z,695.00
2023-01-19T03:24:53.763Z,694.00
2023-01-19T03:25:23.757Z,693.00
2023-01-19T03:25:53.752Z,693.00
2023-01-19T03:26:23.746Z,695.00
2023-01-19T03:26:53.861Z,696.00
2023-01-19T03:27:23.856Z,697.00
2023-01-19T03:27:53.855Z,696.00
2023-01-19T03:28:23.990Z,694.00
2023-01-19T03:28:54.021Z,693.00
2023-01-19T03:29:23.999Z,692.00
2023-01-19T03:29:54.115Z,692.00
2023-01-19T03:30:24.112Z,691.00
2023-01-19T03:30:54.306Z,692.00
2023-01-19T03:31:24.276Z,692.00
2023-01-19T03:31:54.281Z,691.00
2023-01-19T03:32:24.280Z,690.00
2023-01-19T03:32:54.269Z,690.00
2023-01-19T03:33:24.264Z,689.00
2023-01-19T03:33:54.383Z,690.00
2023-01-19T03:34:24.498Z,691.00
2023-01-19T03:34:54.626Z,689.00
2023-01-19T03:35:24.615Z,688.00
2023-01-19T03:35:54.756Z,686.00
2023-01-19T03:36:24.750Z,687.00
2023-01-19T03:36:54.753Z,687.00
2023-01-19T03:37:24.760Z,688.00
2023-01-19T03:37:54.749Z,688.00
2023-01-19T03:38:24.866Z,689.00
2023-01-19T03:38:54.984Z,688.00
2023-01-19T03:39:25.096Z,689.00
2023-01-19T03:39:55.178Z,690.00
2023-01-19T03:40:25.177Z,692.00
2023-01-19T03:40:55.295Z,690.00
2023-01-19T03:41:25.385Z,688.00
2023-01-19T03:41:55.382Z,686.00
2023-01-19T03:42:25.521Z,683.00
2023-01-19T03:42:55.522Z,682.00
2023-01-19T03:43:25.520Z,680.00
2023-01-19T03:43:55.548Z,680.00
2023-01-19T03:44:25.517Z,681.00
2023-01-19T03:44:55.519Z,684.00
2023-01-19T03:45:25.536Z,684.00
2023-01-19T03:45:55.541Z,685.00
2023-01-19T03:46:25.578Z,687.00
2023-01-19T03:46:55.551Z,689.00
2023-01-19T03:47:25.666Z,688.00
2023-01-19T03:47:55.788Z,687.00
2023-01-19T03:48:25.786Z,688.00
2023-01-19T03:48:55.922Z,690.00
2023-01-19T03:49:25.922Z,689.00
2023-01-19T03:49:56.037Z,689.00
2023-01-19T03:50:26.155Z,687.00
2023-01-19T03:50:56.177Z,686.00
2023-01-19T03:51:26.173Z,683.00
2023-01-19T03:51:56.291Z,681.00
2023-01-19T03:52:26.413Z,680.00
2023-01-19T03:52:56.406Z,680.00
2023-01-19T03:53:26.522Z,681.00
2023-01-19T03:53:56.651Z,682.00
2023-01-19T03:54:26.662Z,682.00
2023-01-19T03:54:56.763Z,682.00
2023-01-19T03:55:26.885Z,681.00
2023-01-19T03:55:56.881Z,680.00
2023-01-19T03:56:27.001Z,681.00
2023-01-19T03:56:56.994Z,681.00
2023-01-19T03:57:27.156Z,682.00
2023-01-19T03:57:57.131Z,683.00
2023-01-19T03:58:27.129Z,684.00
2023-01-19T03:58:57.292Z,682.00
2023-01-19T03:59:27.372Z,684.00
2023-01-19T03:59:57.349Z,683.00
2023-01-19T04:00:27.334Z,684.00
2023-01-19T04:00:57.496Z,687.00
2023-01-19T04:01:27.746Z,687.00
2023-01-19T04:01:57.683Z,689.00
2023-01-19T04:02:27.658Z,690.00
2023-01-19T04:02:57.778Z,691.00
2023-01-19T04:03:27.723Z,692.00
2023-01-19T04:03:57.855Z,692.00
2023-01-19T04:04:27.846Z,692.00
2023-01-19T04:04:57.858Z,692.00
2023-01-19T04:05:27.970Z,693.00
2023-01-19T04:05:58.075Z,693.00
2023-01-19T04:06:28.078Z,692.00
2023-01-19T04:06:58.193Z,690.00
2023-01-19T04:07:28.311Z,690.00
2023-01-19T04:07:58.434Z,689.00
2023-01-19T04:08:28.416Z,688.00
2023-01-19T04:08:58.467Z,689.00
2023-01-19T04:09:28.452Z,689.00
2023-01-19T04:09:58.575Z,689.00
2023-01-19T04:10:28.565Z,690.00
2023-01-19T04:10:58.678Z,690.00
2023-01-19T04:11:28.793Z,690.00
2023-01-19T04:11:58.902Z,690.00
2023-01-19T04:12:29.010Z,691.00
2023-01-19T04:12:59.578Z,688.00
2023-01-19T04:13:29.087Z,689.00
2023-01-19T04:13:59.184Z,688.00
2023-01-19T04:14:29.259Z,687.00
2023-01-19T04:14:59.361Z,686.00
2023-01-19T04:15:29.416Z,682.00
2023-01-19T04:15:59.554Z,682.00
2023-01-19T04:16:29.520Z,684.00
2023-01-19T04:16:59.582Z,683.00
2023-01-19T04:17:29.677Z,683.00
2023-01-19T04:17:59.781Z,682.00
2023-01-19T04:18:29.825Z,683.00
2023-01-19T04:18:59.920Z,684.00
2023-01-19T04:19:29.989Z,686.00
2023-01-19T04:20:00.064Z,686.00
2023-01-19T04:20:30.195Z,688.00
2023-01-19T04:21:00.250Z,687.00
2023-01-19T04:21:30.329Z,689.00
2023-01-19T04:22:00.417Z,692.00
2023-01-19T04:22:30.461Z,691.00
2023-01-19T04:23:00.983Z,690.00
2023-01-19T04:23:30.463Z,689.00
2023-01-19T04:24:00.584Z,688.00
2023-01-19T04:24:30.702Z,687.00
2023-01-19T04:25:00.699Z,686.00
2023-01-19T04:25:30.816Z,686.00
2023-01-19T04:26:00.815Z,687.00
2023-01-19T04:26:30.813Z,686.00
2023-01-19T04:27:00.931Z,685.00
2023-01-19T04:27:30.924Z,686.00
2023-01-19T04:28:01.055Z,688.00
2023-01-19T04:28:31.037Z,689.00
2023-01-19T04:29:01.195Z,689.00
2023-01-19T04:29:31.172Z,689.00
2023-01-19T04:30:01.173Z,689.00
2023-01-19T04:30:31.187Z,687.00
2023-01-19T04:31:01.343Z,686.00
2023-01-19T04:31:31.371Z,687.00
2023-01-19T04:32:01.431Z,687.00
2023-01-19T04:32:31.551Z,687.00
2023-01-19T04:33:02.096Z,688.00
2023-01-19T04:33:31.645Z,687.00
2023-01-19T04:34:01.758Z,688.00
2023-01-19T04:34:31.879Z,690.00
2023-01-19T04:35:01.999Z,689.00
2023-01-19T04:35:31.992Z,690.00
2023-01-19T04:36:02.119Z,691.00
2023-01-19T04:36:32.150Z,692.00
2023-01-19T04:37:02.149Z,693.00
2023-01-19T04:37:32.285Z,693.00
2023-01-19T04:38:02.287Z,694.00
2023-01-19T04:38:32.333Z,693.00
2023-01-19T04:39:02.445Z,693.00
2023-01-19T04:39:32.436Z,690.00
2023-01-19T04:40:02.560Z,691.00
2023-01-19T04:40:32.667Z,691.00
2023-01-19T04:41:02.787Z,691.00
2023-01-19T04:41:32.898Z,689.00
2023-01-19T04:42:02.892Z,688.00
2023-01-19T04:42:33.019Z,689.00
2023-01-19T04:43:03.507Z,687.00
2023-01-19T04:43:33.083Z,686.00
2023-01-19T04:44:03.198Z,688.00
2023-01-19T04:44:33.195Z,688.00
2023-01-19T04:45:03.313Z,689.00
2023-01-19T04:45:33.318Z,688.00
2023-01-19T04:46:03.452Z,691.00
2023-01-19T04:46:33.580Z,694.00
2023-01-19T04:47:03.585Z,696.00
2023-01-19T04:47:33.591Z,697.00
2023-01-19T04:48:03.580Z,700.00
2023-01-19T04:48:33.586Z,707.00
2023-01-19T04:49:03.698Z,713.00
2023-01-19T04:49:33.813Z,718.00
2023-01-19T04:50:03.938Z,724.00
2023-01-19T04:50:34.088Z,729.00
2023-01-19T04:51:04.087Z,736.00
2023-01-19T04:51:34.205Z,741.00
2023-01-19T04:52:04.207Z,746.00
2023-01-19T04:52:34.330Z,751.00
2023-01-19T04:53:04.326Z,754.00
2023-01-19T04:53:34.374Z,758.00
2023-01-19T04:54:04.572Z,761.00
2023-01-19T04:54:34.660Z,763.00
2023-01-19T04:55:04.660Z,767.00
2023-01-19T04:55:34.782Z,769.00
2023-01-19T04:56:04.898Z,769.00
2023-01-19T04:56:34.892Z,769.00
2023-01-19T04:57:04.888Z,770.00
2023-01-19T04:57:35.083Z,774.00
2023-01-19T04:58:05.058Z,777.00
2023-01-19T04:58:35.050Z,776.00
2023-01-19T04:59:05.165Z,776.00
2023-01-19T04:59:35.283Z,777.00
2023-01-19T05:00:05.349Z,779.00
2023-01-19T05:00:35.339Z,778.00
2023-01-19T05:01:05.490Z,779.00
2023-01-19T05:01:35.591Z,779.00
2023-01-19T05:02:05.638Z,777.00
2023-01-19T05:02:35.685Z,776.00
2023-01-19T05:03:06.274Z,775.00
2023-01-19T05:03:35.769Z,775.00
2023-01-19T05:04:05.764Z,776.00
2023-01-19T05:04:35.878Z,777.00
2023-01-19T05:05:05.999Z,777.00
2023-01-19T05:05:35.998Z,777.00
2023-01-19T05:06:06.112Z,781.00
2023-01-19T05:06:36.235Z,781.00
2023-01-19T05:07:06.224Z,781.00
2023-01-19T05:07:36.339Z,781.00
2023-01-19T05:08:06.347Z,784.00
2023-01-19T05:08:36.456Z,783.00
2023-01-19T05:09:06.450Z,783.00
2023-01-19T05:09:36.567Z,784.00
2023-01-19T05:10:06.689Z,786.00
2023-01-19T05:10:36.681Z,784.00
2023-01-19T05:11:06.806Z,785.00
2023-01-19T05:11:36.920Z,784.00
2023-01-19T05:12:07.050Z,783.00
2023-01-19T05:12:37.028Z,784.00
2023-01-19T05:13:07.143Z,784.00
2023-01-19T05:13:37.142Z,784.00
2023-01-19T05:14:07.144Z,786.00
2023-01-19T05:14:37.263Z,787.00
2023-01-19T05:15:07.599Z,788.00
2023-01-19T05:15:37.468Z,787.00
2023-01-19T05:16:07.552Z,787.00
2023-01-19T05:16:37.525Z,788.00
2023-01-19T05:17:07.668Z,786.00
2023-01-19T05:17:37.644Z,786.00
2023-01-19T05:18:07.640Z,785.00
2023-01-19T05:18:37.763Z,786.00
2023-01-19T05:19:07.756Z,788.00
2023-01-19T05:19:37.897Z,788.00
2023-01-19T05:20:08.020Z,790.00
2023-01-19T05:20:38.015Z,791.00
2023-01-19T05:21:07.990Z,793.00
2023-01-19T05:21:38.105Z,796.00
2023-01-19T05:22:08.122Z,801.00
2023-01-19T05:22:38.160Z,804.00
2023-01-19T05:23:08.189Z,808.00
2023-01-19T05:23:38.217Z,810.00
2023-01-19T05:24:08.245Z,814.00
2023-01-19T05:24:38.271Z,816.00
2023-01-19T05:25:08.299Z,820.00
2023-01-19T05:25:38.334Z,822.00
2023-01-19T05:26:09.599Z,825.00
2023-01-19T05:26:38.462Z,828.00
2023-01-19T05:27:08.510Z,827.00
2023-01-19T05:27:38.535Z,828.00
2023-01-19T05:28:08.565Z,829.00
2023-01-19T05:28:38.601Z,831.00
2023-01-19T05:29:08.631Z,832.00
2023-01-19T05:29:38.658Z,833.00
2023-01-19T05:30:08.710Z,832.00
2023-01-19T05:30:38.769Z,834.00
2023-01-19T05:31:08.999Z,837.00
2023-01-19T05:31:38.925Z,840.00
2023-01-19T05:32:08.944Z,842.00
2023-01-19T05:32:39.012Z,843.00
2023-01-19T05:33:09.026Z,843.00
2023-01-19T05:33:39.049Z,846.00
2023-01-19T05:34:09.103Z,848.00
2023-01-19T05:34:39.134Z,852.00
2023-01-19T05:35:09.172Z,855.00
2023-01-19T05:35:39.196Z,856.00
2023-01-19T05:36:09.244Z,858.00
2023-01-19T05:36:39.277Z,858.00
2023-01-19T05:37:09.311Z,856.00
2023-01-19T05:37:39.354Z,858.00
2023-01-19T05:38:09.386Z,858.00
2023-01-19T05:38:39.420Z,857.00
2023-01-19T05:39:09.445Z,856.00
2023-01-19T05:39:39.456Z,855.00
2023-01-19T05:40:09.535Z,854.00
2023-01-19T05:40:39.548Z,853.00
2023-01-19T05:41:09.581Z,853.00
2023-01-19T05:41:39.615Z,852.00
2023-01-19T05:42:09.639Z,849.00
2023-01-19T05:42:39.688Z,848.00
2023-01-19T05:43:09.748Z,849.00
2023-01-19T05:43:39.767Z,850.00
2023-01-19T05:44:09.798Z,852.00
2023-01-19T05:44:39.833Z,852.00
2023-01-19T05:45:09.870Z,853.00
2023-01-19T05:45:40.152Z,854.00
2023-01-19T05:46:09.928Z,856.00
2023-01-19T05:46:39.983Z,857.00
2023-01-19T05:47:10.052Z,860.00
2023-01-19T05:47:40.091Z,857.00
2023-01-19T05:48:10.313Z,858.00
2023-01-19T05:48:40.213Z,857.00
2023-01-19T05:49:10.228Z,855.00
2023-01-19T05:49:40.277Z,852.00
2023-01-19T05:50:10.306Z,847.00
2023-01-19T05:50:40.364Z,845.00
2023-01-19T05:51:10.386Z,843.00
2023-01-19T05:51:40.454Z,840.00
2023-01-19T05:52:10.480Z,838.00
2023-01-19T05:52:40.509Z,834.00
2023-01-19T05:53:10.544Z,831.00
2023-01-19T05:53:40.580Z,831.00
2023-01-19T05:54:10.599Z,829.00
2023-01-19T05:54:40.671Z,827.00
2023-01-19T05:55:10.693Z,826.00
2023-01-19T05:55:40.733Z,826.00
2023-01-19T05:56:10.754Z,825.00
2023-01-19T05:56:40.786Z,823.00
2023-01-19T05:57:10.815Z,822.00
2023-01-19T05:57:40.847Z,821.00
2023-01-19T05:58:10.882Z,820.00
2023-01-19T05:58:40.920Z,819.00
2023-01-19T05:59:10.970Z,818.00
2023-01-19T05:59:40.992Z,817.00
2023-01-19T06:00:11.023Z,816.00
2023-01-19T06:00:41.077Z,813.00
2023-01-19T06:01:11.166Z,813.00
2023-01-19T06:01:41.298Z,813.00
2023-01-19T06:02:11.342Z,811.00
2023-01-19T06:02:41.390Z,811.00
2023-01-19T06:03:11.405Z,811.00
2023-01-19T06:03:41.453Z,811.00
2023-01-19T06:04:11.478Z,812.00
2023-01-19T06:04:41.514Z,815.00
2023-01-19T06:05:11.531Z,823.00
2023-01-19T06:05:41.562Z,832.00
2023-01-19T06:06:11.600Z,838.00
2023-01-19T06:06:41.619Z,840.00
2023-01-19T06:07:11.649Z,842.00
2023-01-19T06:07:41.702Z,847.00
2023-01-19T06:08:11.725Z,853.00
2023-01-19T06:08:41.759Z,856.00
2023-01-19T06:09:11.789Z,862.00
2023-01-19T06:09:41.818Z,863.00
2023-01-19T06:10:11.856Z,865.00
2023-01-19T06:10:41.884Z,863.00
2023-01-19T06:11:11.988Z,863.00
2023-01-19T06:11:42.015Z,861.00
2023-01-19T06:12:12.014Z,859.00
2023-01-19T06:12:42.062Z,861.00
2023-01-19T06:13:12.039Z,864.00
2023-01-19T06:13:42.297Z,865.00
2023-01-19T06:14:12.052Z,867.00
2023-01-19T06:14:42.150Z,870.00
2023-01-19T06:15:12.146Z,869.00